createdAt,value
2019-01-17T00:02:24.666Z,5.70
2019-01-17T00:05:07.119Z,5.80
2019-01-17T00:07:53.846Z,5.70
2019-01-17T00:10:36.029Z,5.70
2019-01-17T00:13:09.613Z,5.80
2019-01-17T00:15:39.821Z,5.80
2019-01-17T00:18:10.006Z,5.80
2019-01-17T00:20:46.218Z,5.80
2019-01-17T00:23:19.100Z,5.80
2019-01-17T00:25:51.927Z,5.80
2019-01-17T00:28:22.170Z,5.90
2019-01-17T00:30:55.477Z,5.90
2019-01-17T00:33:28.514Z,5.80
2019-01-17T00:36:14.976Z,5.80
2019-01-17T00:38:57.002Z,5.80
2019-01-17T00:41:39.518Z,5.80
2019-01-17T00:44:26.070Z,5.90
2019-01-17T00:47:12.690Z,5.80
2019-01-17T00:49:45.495Z,5.90
2019-01-17T00:52:18.125Z,5.80
2019-01-17T00:54:51.115Z,5.90
2019-01-17T00:57:30.494Z,5.90
2019-01-17T01:00:00.605Z,6.00
2019-01-17T01:02:40.019Z,6.00
2019-01-17T01:05:26.276Z,6.00
2019-01-17T01:08:11.805Z,6.10
2019-01-17T01:10:50.770Z,6.10
2019-01-17T01:13:32.587Z,6.10
2019-01-17T01:16:19.148Z,6.00
2019-01-17T01:18:49.318Z,6.10
2019-01-17T01:21:35.481Z,6.10
2019-01-17T01:24:23.970Z,6.10
2019-01-17T01:26:57.000Z,6.00
2019-01-17T01:29:33.033Z,6.10
2019-01-17T01:32:21.226Z,6.10
2019-01-17T01:34:51.411Z,6.10
2019-01-17T01:37:30.385Z,6.10
2019-01-17T01:40:12.555Z,6.10
2019-01-17T01:42:59.135Z,6.10
2019-01-17T01:45:29.381Z,6.10
2019-01-17T01:48:05.367Z,6.00
2019-01-17T01:50:47.734Z,6.00
2019-01-17T01:53:16.231Z,6.00
2019-01-17T01:55:44.770Z,6.10
2019-01-17T01:58:13.466Z,6.10
2019-01-17T02:00:42.886Z,6.10
2019-01-17T02:03:11.558Z,6.10
2019-01-17T02:05:40.086Z,6.10
2019-01-17T02:08:08.814Z,6.10
2019-01-17T02:10:37.421Z,6.00
2019-01-17T02:13:05.998Z,6.10
2019-01-17T02:15:34.561Z,6.10
2019-01-17T02:18:03.259Z,6.10
2019-01-17T02:20:31.790Z,6.10
2019-01-17T02:23:00.346Z,6.10
2019-01-17T02:25:28.878Z,6.10
2019-01-17T02:27:57.365Z,6.20
2019-01-17T02:30:25.837Z,6.10
2019-01-17T02:32:54.390Z,6.20
2019-01-17T02:35:23.065Z,6.10
2019-01-17T02:37:51.619Z,6.20
2019-01-17T02:40:20.235Z,6.10
2019-01-17T02:42:48.854Z,6.10
2019-01-17T02:45:17.555Z,6.10
2019-01-17T02:47:46.092Z,6.10
2019-01-17T02:50:14.767Z,6.10
2019-01-17T02:52:43.362Z,6.20
2019-01-17T02:55:12.062Z,6.10
2019-01-17T02:57:40.521Z,6.10
2019-01-17T03:00:12.158Z,6.10
2019-01-17T03:02:40.618Z,6.10
2019-01-17T03:05:09.817Z,6.10
2019-01-17T03:07:38.422Z,6.20
2019-01-17T03:10:09.991Z,6.10
2019-01-17T03:12:38.597Z,6.20
2019-01-17T03:15:07.586Z,6.10
2019-01-17T03:17:36.042Z,6.10
2019-01-17T03:20:07.522Z,6.10
2019-01-17T03:22:36.055Z,6.20
2019-01-17T03:25:06.860Z,6.20
2019-01-17T03:27:35.538Z,6.10
2019-01-17T03:30:06.918Z,6.20
2019-01-17T03:32:35.435Z,6.20
2019-01-17T03:35:05.252Z,6.10
2019-01-17T03:37:33.837Z,6.10
2019-01-17T03:40:05.050Z,6.10
2019-01-17T03:42:33.583Z,6.20
2019-01-17T03:45:02.195Z,6.20
2019-01-17T03:47:30.754Z,6.10
2019-01-17T03:49:59.362Z,6.10
2019-01-17T03:52:27.923Z,6.10
2019-01-17T03:54:56.461Z,6.10
2019-01-17T03:57:25.022Z,6.10
2019-01-17T03:59:53.560Z,6.10
2019-01-17T04:02:22.119Z,6.10
2019-01-17T04:04:50.656Z,6.10
2019-01-17T04:07:19.222Z,6.10
2019-01-17T04:09:47.759Z,6.20
2019-01-17T04:12:16.329Z,6.10
2019-01-17T04:14:44.858Z,6.20
2019-01-17T04:17:13.342Z,6.20
2019-01-17T04:19:41.911Z,6.10
2019-01-17T04:22:10.463Z,6.10
2019-01-17T04:24:40.634Z,6.10
2019-01-17T04:27:09.187Z,6.10
2019-01-17T04:29:37.790Z,6.10
2019-01-17T04:32:06.341Z,6.10
2019-01-17T04:34:34.794Z,6.10
2019-01-17T04:37:03.418Z,6.10
2019-01-17T04:39:31.882Z,6.10
2019-01-17T04:42:00.439Z,6.10
2019-01-17T04:44:28.978Z,6.10
2019-01-17T04:46:57.542Z,6.10
2019-01-17T04:49:25.997Z,6.10
2019-01-17T04:51:54.558Z,6.10
2019-01-17T04:54:23.161Z,6.10
2019-01-17T04:56:51.721Z,6.10
2019-01-17T04:59:20.250Z,6.00
2019-01-17T05:01:48.818Z,6.00
2019-01-17T05:04:17.350Z,6.00
2019-01-17T05:06:45.878Z,6.00
2019-01-17T05:09:14.579Z,6.00
2019-01-17T05:11:43.122Z,6.00
2019-01-17T05:14:11.668Z,6.00
2019-01-17T05:16:40.210Z,6.00
2019-01-17T05:19:08.706Z,6.00
2019-01-17T05:21:37.234Z,6.00
2019-01-17T05:24:05.796Z,5.90
2019-01-17T05:26:34.325Z,6.00
2019-01-17T05:29:02.883Z,6.00
2019-01-17T05:31:31.414Z,6.00
2019-01-17T05:33:59.898Z,5.90
2019-01-17T05:36:28.428Z,5.90
2019-01-17T05:38:56.990Z,5.90
2019-01-17T05:41:25.526Z,6.00
2019-01-17T05:43:54.094Z,5.90
2019-01-17T05:46:22.638Z,5.90
2019-01-17T05:48:51.203Z,5.90
2019-01-17T05:51:19.727Z,5.90
2019-01-17T05:53:48.214Z,5.90
2019-01-17T05:56:16.670Z,5.80
2019-01-17T05:58:45.162Z,5.80
2019-01-17T06:01:13.697Z,5.80
2019-01-17T06:03:42.261Z,5.80
2019-01-17T06:06:10.798Z,5.80
2019-01-17T06:08:39.354Z,5.90
2019-01-17T06:11:07.815Z,5.80
2019-01-17T06:13:36.378Z,5.80
2019-01-17T06:16:05.314Z,5.80
2019-01-17T06:18:33.840Z,5.90
2019-01-17T06:21:02.397Z,5.80
2019-01-17T06:23:30.860Z,5.80
2019-01-17T06:25:59.491Z,5.80
2019-01-17T06:28:28.022Z,5.80
2019-01-17T06:30:56.579Z,5.80
2019-01-17T06:33:25.111Z,5.80
2019-01-17T06:35:53.595Z,5.80
2019-01-17T06:38:22.125Z,5.80
2019-01-17T06:40:50.679Z,5.80
2019-01-17T06:43:19.142Z,5.80
2019-01-17T06:45:47.699Z,5.70
2019-01-17T06:48:16.155Z,5.80
2019-01-17T06:50:44.643Z,5.80
2019-01-17T06:53:13.174Z,5.80
2019-01-17T06:55:41.661Z,5.90
2019-01-17T06:58:10.113Z,5.90
2019-01-17T07:00:38.603Z,5.90
2019-01-17T07:03:07.233Z,5.90
2019-01-17T07:05:35.826Z,5.80
2019-01-17T07:08:04.494Z,5.80
2019-01-17T07:10:32.990Z,5.80
2019-01-17T07:13:01.527Z,5.90
2019-01-17T07:15:30.113Z,5.90
2019-01-17T07:17:58.697Z,5.90
2019-01-17T07:20:27.258Z,5.90
2019-01-17T07:22:55.790Z,5.90
2019-01-17T07:25:24.354Z,5.90
2019-01-17T07:27:52.887Z,5.80
2019-01-17T07:30:23.484Z,5.80
2019-01-17T07:32:51.954Z,5.90
2019-01-17T07:35:20.646Z,5.90
2019-01-17T07:37:49.242Z,5.90
2019-01-17T07:40:17.838Z,5.90
2019-01-17T07:42:46.398Z,5.80
2019-01-17T07:45:20.462Z,5.70
2019-01-17T07:47:49.101Z,5.80
2019-01-17T07:50:17.769Z,5.90
2019-01-17T07:52:46.393Z,5.90
2019-01-17T07:55:14.997Z,5.80
2019-01-17T07:57:44.411Z,5.80
2019-01-17T08:00:18.418Z,5.90
2019-01-17T08:02:47.047Z,5.90
2019-01-17T08:05:15.718Z,5.90
2019-01-17T08:07:44.348Z,6.00
2019-01-17T08:10:18.185Z,6.00
2019-01-17T08:12:47.011Z,6.00
2019-01-17T08:15:15.781Z,5.90
2019-01-17T08:17:44.338Z,6.00
2019-01-17T08:20:18.381Z,6.00
2019-01-17T08:22:46.866Z,6.00
2019-01-17T08:25:15.463Z,5.90
2019-01-17T08:27:44.564Z,6.00
2019-01-17T08:30:15.934Z,6.00
2019-01-17T08:32:44.564Z,6.10
2019-01-17T08:35:14.629Z,6.00
2019-01-17T08:37:43.114Z,6.00
2019-01-17T08:40:20.268Z,6.00
2019-01-17T08:42:44.993Z,6.10
2019-01-17T08:45:13.522Z,6.10
2019-01-17T08:47:42.006Z,6.10
2019-01-17T08:50:13.501Z,6.10
2019-01-17T08:52:42.002Z,6.10
2019-01-17T08:55:10.669Z,6.10
2019-01-17T08:57:39.197Z,6.10
2019-01-17T09:00:25.222Z,6.10
2019-01-17T09:02:53.776Z,6.10
2019-01-17T09:05:22.459Z,6.10
2019-01-17T09:07:51.058Z,6.10
2019-01-17T09:10:25.686Z,6.10
2019-01-17T09:12:54.281Z,6.10
2019-01-17T09:15:28.022Z,6.20
2019-01-17T09:17:56.557Z,6.20
2019-01-17T09:20:25.114Z,6.30
2019-01-17T09:22:53.567Z,6.30
2019-01-17T09:25:22.261Z,6.40
2019-01-17T09:27:50.865Z,6.40
2019-01-17T09:30:20.925Z,6.40
2019-01-17T09:32:49.518Z,6.40
2019-01-17T09:35:18.741Z,6.50
2019-01-17T09:37:47.816Z,6.40
2019-01-17T09:40:18.209Z,6.50
2019-01-17T09:42:46.806Z,6.40
2019-01-17T09:45:15.829Z,6.40
2019-01-17T09:47:44.905Z,6.50
2019-01-17T09:50:16.303Z,6.60
2019-01-17T09:52:45.173Z,6.60
2019-01-17T09:55:13.874Z,6.60
2019-01-17T09:57:42.410Z,6.60
2019-01-17T10:00:19.412Z,6.60
2019-01-17T10:02:47.938Z,6.60
2019-01-17T10:05:16.635Z,6.60
2019-01-17T10:07:45.306Z,6.70
2019-01-17T10:10:22.064Z,6.70
2019-01-17T10:12:50.669Z,6.70
2019-01-17T10:15:46.691Z,6.80
2019-01-17T10:18:39.278Z,6.80
2019-01-17T10:21:13.518Z,6.70
2019-01-17T10:24:05.837Z,6.80
2019-01-17T10:26:59.637Z,6.70
2019-01-17T10:29:39.742Z,6.70
2019-01-17T10:32:32.506Z,6.70
2019-01-17T10:35:20.629Z,6.60
2019-01-17T10:37:52.239Z,6.80
2019-01-17T10:40:35.890Z,6.90
2019-01-17T10:43:22.749Z,6.90
2019-01-17T10:46:17.970Z,6.90
2019-01-17T10:48:52.283Z,7.10
2019-01-17T10:51:32.406Z,7.20
2019-01-17T10:54:07.070Z,7.40
2019-01-17T10:56:44.157Z,7.80
2019-01-17T10:59:15.698Z,8.10
2019-01-17T11:01:49.924Z,8.30
2019-01-17T11:04:42.377Z,8.50
2019-01-17T11:07:16.747Z,8.70
2019-01-17T11:10:14.014Z,8.80
2019-01-17T11:12:51.458Z,9.00
2019-01-17T11:15:53.277Z,9.00
2019-01-17T11:18:36.681Z,9.20
2019-01-17T11:21:32.194Z,9.00
2019-01-17T11:24:12.413Z,8.90
2019-01-17T11:26:52.735Z,8.90
2019-01-17T11:29:42.393Z,9.00
2019-01-17T11:32:35.971Z,9.10
2019-01-17T11:35:22.521Z,9.20
2019-01-17T11:38:02.654Z,9.20
2019-01-17T11:40:55.581Z,9.30
2019-01-17T11:43:29.929Z,9.40
2019-01-17T11:46:07.159Z,9.20
2019-01-17T11:48:47.917Z,9.30
2019-01-17T11:51:22.463Z,9.00
2019-01-17T11:54:03.078Z,8.80
2019-01-17T11:56:51.186Z,8.80
2019-01-17T11:59:37.379Z,8.70
2019-01-17T12:02:18.005Z,8.60
2019-01-17T12:04:45.392Z,8.60
2019-01-17T12:07:16.989Z,8.50
2019-01-17T12:09:45.520Z,8.40
2019-01-17T12:12:15.714Z,8.40
2019-01-17T12:14:44.422Z,8.40
2019-01-17T12:17:13.596Z,8.40
2019-01-17T12:19:42.119Z,8.30
2019-01-17T12:22:10.791Z,8.30
2019-01-17T12:24:40.434Z,8.20
2019-01-17T12:27:08.966Z,8.10
2019-01-17T12:29:37.623Z,8.00
2019-01-17T12:32:06.255Z,8.00
2019-01-17T12:34:34.819Z,8.10
2019-01-17T12:37:03.354Z,8.20
2019-01-17T12:39:31.913Z,8.20
2019-01-17T12:42:00.371Z,8.10
2019-01-17T12:44:28.944Z,8.00
2019-01-17T12:46:57.546Z,7.90
2019-01-17T12:49:26.242Z,7.80
2019-01-17T12:51:54.842Z,7.70
2019-01-17T12:54:23.537Z,7.70
2019-01-17T12:56:54.078Z,7.60
2019-01-17T12:59:22.613Z,7.80
2019-01-17T13:01:51.143Z,8.10
2019-01-17T13:04:19.634Z,8.20
2019-01-17T13:06:48.163Z,8.10
2019-01-17T13:09:16.719Z,8.00
2019-01-17T13:11:45.259Z,8.10
2019-01-17T13:14:13.805Z,8.10
2019-01-17T13:16:42.337Z,8.00
2019-01-17T13:19:10.892Z,7.90
2019-01-17T13:21:39.490Z,7.90
2019-01-17T13:24:08.114Z,7.80
2019-01-17T13:26:36.706Z,7.80
2019-01-17T13:29:05.334Z,7.80
2019-01-17T13:31:33.866Z,7.80
2019-01-17T13:34:02.493Z,7.80
2019-01-17T13:36:31.022Z,7.80
2019-01-17T13:38:59.510Z,7.60
2019-01-17T13:41:28.041Z,7.60
2019-01-17T13:43:56.526Z,7.50
2019-01-17T13:46:25.048Z,7.50
2019-01-17T13:48:53.516Z,7.70
2019-01-17T13:51:22.065Z,7.80
2019-01-17T13:53:50.610Z,7.70
2019-01-17T13:56:19.166Z,7.60
2019-01-17T13:58:47.623Z,7.60
2019-01-17T14:01:16.250Z,7.50
2019-01-17T14:03:44.778Z,7.50
2019-01-17T14:06:13.262Z,7.50
2019-01-17T14:08:41.793Z,7.60
2019-01-17T14:11:10.277Z,7.60
2019-01-17T14:13:38.739Z,7.50
2019-01-17T14:16:07.435Z,7.50
2019-01-17T14:18:35.966Z,7.40
2019-01-17T14:21:04.662Z,7.30
2019-01-17T14:23:33.197Z,7.20
2019-01-17T14:26:01.748Z,7.20
2019-01-17T14:28:30.286Z,7.20
2019-01-17T14:30:58.915Z,7.20
2019-01-17T14:33:27.369Z,7.20
2019-01-17T14:35:56.002Z,7.10
2019-01-17T14:38:24.534Z,7.00
2019-01-17T14:40:53.101Z,7.00
2019-01-17T14:43:21.641Z,7.00
2019-01-17T14:45:50.266Z,6.80
2019-01-17T14:48:18.796Z,6.70
2019-01-17T14:50:47.348Z,6.70
2019-01-17T14:53:15.874Z,6.70
2019-01-17T14:55:44.361Z,6.40
2019-01-17T14:58:12.890Z,6.30
2019-01-17T15:00:41.379Z,6.10
2019-01-17T15:03:09.838Z,6.00
2019-01-17T15:05:38.394Z,5.90
2019-01-17T15:08:06.930Z,6.10
2019-01-17T15:10:38.197Z,6.00
2019-01-17T15:13:06.789Z,5.00
2019-01-17T15:15:35.345Z,4.00
2019-01-17T15:18:04.018Z,3.50
2019-01-17T15:20:32.578Z,3.30
2019-01-17T15:23:01.106Z,3.30
2019-01-17T15:25:29.705Z,3.40
2019-01-17T15:27:58.190Z,3.50
2019-01-17T15:30:26.793Z,3.50
2019-01-17T15:32:55.489Z,3.70
2019-01-17T15:35:24.026Z,3.60
2019-01-17T15:37:52.583Z,3.60
2019-01-17T15:40:26.355Z,3.60
2019-01-17T15:42:54.990Z,3.70
2019-01-17T15:45:23.657Z,3.70
2019-01-17T15:47:52.137Z,3.70
2019-01-17T15:50:21.002Z,3.70
2019-01-17T15:52:49.482Z,3.80
2019-01-17T15:55:18.484Z,3.90
2019-01-17T15:57:47.112Z,3.90
2019-01-17T16:00:18.853Z,3.90
2019-01-17T16:02:48.608Z,3.90
2019-01-17T16:05:17.194Z,4.00
2019-01-17T16:07:45.741Z,4.10
2019-01-17T16:10:15.739Z,4.00
2019-01-17T16:12:44.369Z,4.20
2019-01-17T16:15:18.173Z,4.00
2019-01-17T16:17:46.817Z,3.90
2019-01-17T16:20:16.813Z,4.00
2019-01-17T16:22:45.365Z,3.90
2019-01-17T16:25:15.336Z,4.00
2019-01-17T16:27:44.029Z,3.90
2019-01-17T16:30:18.174Z,4.00
2019-01-17T16:32:46.799Z,4.00
2019-01-17T16:35:15.494Z,4.00
2019-01-17T16:37:44.289Z,4.10
2019-01-17T16:40:13.979Z,4.00
2019-01-17T16:42:42.537Z,4.00
2019-01-17T16:45:14.414Z,4.10
2019-01-17T16:47:42.973Z,4.10
2019-01-17T16:50:23.030Z,4.00
2019-01-17T16:52:51.859Z,4.00
2019-01-17T16:55:20.390Z,3.90
2019-01-17T16:57:49.524Z,3.80
2019-01-17T17:00:26.662Z,3.80
2019-01-17T17:02:55.256Z,3.70
2019-01-17T17:05:23.854Z,3.60
2019-01-17T17:07:52.423Z,3.50
2019-01-17T17:10:21.093Z,3.50
2019-01-17T17:12:49.665Z,3.50
2019-01-17T17:15:18.341Z,3.50
2019-01-17T17:17:46.868Z,3.50
2019-01-17T17:20:19.282Z,3.50
2019-01-17T17:22:47.877Z,3.60
2019-01-17T17:25:16.446Z,3.70
2019-01-17T17:27:45.250Z,3.70
2019-01-17T17:30:16.545Z,3.80
2019-01-17T17:32:45.154Z,3.90
2019-01-17T17:35:13.661Z,3.90
2019-01-17T17:37:42.234Z,3.80
2019-01-17T17:40:22.323Z,3.80
2019-01-17T17:42:50.999Z,3.80
2019-01-17T17:45:19.648Z,3.80
2019-01-17T17:47:48.290Z,3.70
2019-01-17T17:50:18.946Z,3.60
2019-01-17T17:52:47.530Z,3.60
2019-01-17T17:55:17.549Z,3.60
2019-01-17T17:57:46.080Z,3.60
2019-01-17T18:00:45.890Z,3.40
2019-01-17T18:03:14.435Z,3.40
2019-01-17T18:05:43.001Z,3.40
2019-01-17T18:08:11.691Z,3.40
2019-01-17T18:10:40.453Z,3.40
2019-01-17T18:13:08.987Z,3.40
2019-01-17T18:15:37.561Z,3.30
2019-01-17T18:18:06.275Z,3.30
2019-01-17T18:20:34.891Z,3.30
2019-01-17T18:23:03.526Z,3.40
2019-01-17T18:25:34.102Z,3.30
2019-01-17T18:28:08.616Z,3.30
2019-01-17T18:30:35.930Z,3.30
2019-01-17T18:33:04.603Z,3.30
2019-01-17T18:35:33.547Z,3.40
2019-01-17T18:38:02.138Z,3.40
2019-01-17T18:40:30.753Z,3.30
2019-01-17T18:42:59.290Z,3.30
2019-01-17T18:45:27.846Z,3.40
2019-01-17T18:47:56.599Z,3.40
2019-01-17T18:50:27.719Z,3.20
2019-01-17T18:52:56.392Z,3.10
2019-01-17T18:55:25.289Z,3.10
2019-01-17T18:57:54.053Z,3.10
2019-01-17T19:00:28.658Z,3.10
2019-01-17T19:02:57.834Z,2.90
2019-01-17T19:05:26.596Z,2.90
2019-01-17T19:07:55.599Z,2.90
2019-01-17T19:10:24.403Z,3.00
2019-01-17T19:12:53.182Z,2.90
2019-01-17T19:15:26.993Z,3.00
2019-01-17T19:17:55.621Z,2.90
2019-01-17T19:20:24.248Z,2.80
2019-01-17T19:22:52.856Z,2.80
2019-01-17T19:25:21.390Z,2.90
2019-01-17T19:27:50.015Z,2.80
2019-01-17T19:30:21.162Z,2.70
2019-01-17T19:32:49.862Z,2.80
2019-01-17T19:35:18.388Z,2.80
2019-01-17T19:37:47.025Z,2.70
2019-01-17T19:40:18.175Z,2.80
2019-01-17T19:42:46.797Z,2.80
2019-01-17T19:45:16.302Z,2.70
2019-01-17T19:47:45.025Z,2.70
2019-01-17T19:50:19.572Z,2.70
2019-01-17T19:52:48.203Z,2.70
2019-01-17T19:55:17.075Z,2.60
2019-01-17T19:57:45.638Z,2.50
2019-01-17T20:00:19.614Z,2.50
2019-01-17T20:02:48.370Z,2.40
2019-01-17T20:05:19.624Z,2.40
2019-01-17T20:07:48.322Z,2.40
2019-01-17T20:10:19.503Z,2.20
2019-01-17T20:12:48.130Z,2.20
2019-01-17T20:15:16.731Z,2.20
2019-01-17T20:17:45.397Z,2.10
2019-01-17T20:20:16.475Z,2.10
2019-01-17T20:22:45.178Z,2.10
2019-01-17T20:25:13.883Z,1.90
2019-01-17T20:27:45.197Z,2.00
2019-01-17T20:30:19.981Z,2.00
2019-01-17T20:32:48.962Z,1.90
2019-01-17T20:35:17.841Z,2.00
2019-01-17T20:37:46.599Z,2.20
2019-01-17T20:40:20.834Z,2.20
2019-01-17T20:42:49.830Z,2.20
2019-01-17T20:45:18.701Z,2.20
2019-01-17T20:47:47.675Z,2.10
2019-01-17T20:50:23.513Z,1.90
2019-01-17T20:52:52.143Z,1.90
2019-01-17T20:55:20.857Z,2.00
2019-01-17T20:57:50.658Z,1.90
2019-01-17T21:00:27.894Z,1.90
2019-01-17T21:02:56.506Z,2.00
2019-01-17T21:05:26.201Z,2.20
2019-01-17T21:07:54.821Z,2.10
2019-01-17T21:10:23.382Z,2.20
2019-01-17T21:12:51.850Z,2.20
2019-01-17T21:15:20.491Z,2.20
2019-01-17T21:17:49.034Z,2.20
2019-01-17T21:20:18.730Z,2.20
2019-01-17T21:22:47.371Z,2.20
2019-01-17T21:25:19.927Z,2.30
2019-01-17T21:27:48.533Z,2.30
2019-01-17T21:30:19.738Z,2.30
2019-01-17T21:32:48.272Z,2.30
2019-01-17T21:35:16.909Z,2.40
2019-01-17T21:37:45.466Z,2.30
2019-01-17T21:40:19.258Z,2.20
2019-01-17T21:42:47.939Z,2.10
2019-01-17T21:45:18.248Z,2.10
2019-01-17T21:47:46.926Z,2.10
2019-01-17T21:50:26.998Z,2.30
2019-01-17T21:52:55.537Z,2.40
2019-01-17T21:55:24.542Z,2.30
2019-01-17T21:57:53.215Z,2.30
2019-01-17T22:00:24.223Z,2.40
2019-01-17T22:02:52.753Z,2.40
2019-01-17T22:05:21.508Z,2.40
2019-01-17T22:07:50.046Z,2.50
2019-01-17T22:10:20.030Z,2.50
2019-01-17T22:12:48.603Z,2.60
2019-01-17T22:15:22.567Z,2.60
2019-01-17T22:17:51.107Z,2.70
2019-01-17T22:20:19.723Z,2.60
2019-01-17T22:22:48.414Z,2.60
2019-01-17T22:25:18.908Z,2.60
2019-01-17T22:27:49.513Z,2.60
2019-01-17T22:30:30.776Z,2.70
2019-01-17T22:32:59.431Z,2.60
2019-01-17T22:35:28.049Z,2.60
2019-01-17T22:37:56.610Z,2.60
2019-01-17T22:40:25.142Z,2.50
2019-01-17T22:42:53.702Z,2.40
2019-01-17T22:45:25.319Z,2.40
2019-01-17T22:47:53.880Z,2.20
2019-01-17T22:50:22.555Z,2.30
2019-01-17T22:52:51.475Z,2.30
2019-01-17T22:55:20.094Z,2.30
2019-01-17T22:57:48.892Z,2.40
2019-01-17T23:00:50.834Z,2.40
2019-01-17T23:03:25.236Z,2.50
2019-01-17T23:05:53.690Z,2.50
2019-01-17T23:08:22.174Z,2.60
2019-01-17T23:10:50.932Z,2.50
2019-01-17T23:13:19.494Z,2.60
2019-01-17T23:15:48.100Z,2.70
2019-01-17T23:18:16.692Z,2.70
2019-01-17T23:20:45.222Z,2.70
2019-01-17T23:23:13.714Z,2.70
2019-01-17T23:25:42.254Z,2.80
2019-01-17T23:28:10.806Z,2.80
2019-01-17T23:30:39.411Z,2.60
2019-01-17T23:33:08.045Z,2.60
2019-01-17T23:35:36.578Z,2.50
2019-01-17T23:38:05.214Z,2.70
2019-01-17T23:40:33.741Z,2.60
2019-01-17T23:43:02.387Z,2.50
2019-01-17T23:45:30.942Z,2.40
2019-01-17T23:47:59.506Z,2.40
2019-01-17T23:50:28.119Z,2.40
2019-01-17T23:52:56.690Z,2.30
2019-01-17T23:55:25.298Z,2.20
2019-01-17T23:57:53.859Z,2.20
